Time;durP1;ratioP1;P1;durP2;ratioP2;P2;SDS_P1;SDS_P2;PMS_P1;PMS_P2;Temp;Humidity;BMP_temperature;BMP_pressure;BME280_temperature;BME280_humidity;BME280_pressure;Samples;Min_cycle;Max_cycle;Signal;HPM_P1;HPM_P2
2022/04/24 00:01:12;;;;;;;0.20;0.10;;;;;;;22.17;35.82;97511.50;5112588;28;20499;-59
2022/04/24 00:03:38;;;;;;;0.10;0.10;;;;;;;22.17;36.05;97502.34;5112565;28;20036;-59
2022/04/24 00:06:06;;;;;;;0.20;0.10;;;;;;;22.19;36.05;97511.84;5112668;28;20039;-59
2022/04/24 00:08:31;;;;;;;0.10;0.10;;;;;;;22.17;36.30;97502.34;5112388;28;20078;-59
2022/04/24 00:10:57;;;;;;;0.03;0.03;;;;;;;22.18;36.05;97498.34;5094306;28;20079;-57
2022/04/24 00:13:23;;;;;;;0.10;0.10;;;;;;;22.18;36.36;97513.06;5112561;28;20526;-57
2022/04/24 00:15:49;;;;;;;0.00;0.00;;;;;;;22.16;36.32;97518.28;5112423;28;20043;-57
2022/04/24 00:18:15;;;;;;;0.22;0.10;;;;;;;22.16;36.15;97498.00;5112337;28;20096;-57
2022/04/24 00:20:43;;;;;;;0.93;0.10;;;;;;;22.17;36.46;97513.50;5112152;28;20048;-57
2022/04/24 00:23:08;;;;;;;0.00;0.00;;;;;;;22.16;36.19;97500.78;5112340;28;20123;-59
2022/04/24 00:25:33;;;;;;;0.10;0.10;;;;;;;22.14;36.11;97498.41;5112367;28;20134;-59
2022/04/24 00:28:01;;;;;;;0.10;0.10;;;;;;;22.15;36.35;97502.78;5112104;28;20550;-59
2022/04/24 00:30:27;;;;;;;0.10;0.03;;;;;;;22.14;36.62;97505.97;5112335;28;20055;-59
2022/04/24 00:32:52;;;;;;;0.10;0.10;;;;;;;22.15;36.38;97502.00;5112387;28;20043;-59
2022/04/24 00:35:17;;;;;;;0.13;0.00;;;;;;;22.16;36.14;97509.16;5112222;28;20108;-59
2022/04/24 00:37:43;;;;;;;0.00;0.00;;;;;;;22.13;36.19;97512.78;5112239;28;20043;-59
2022/04/24 00:40:09;;;;;;;0.10;0.10;;;;;;;22.16;36.34;97512.72;5110661;28;20032;-59
2022/04/24 00:42:34;;;;;;;0.10;0.10;;;;;;;22.16;36.43;97514.72;5111914;28;20050;-59
2022/04/24 00:45:00;;;;;;;0.30;0.10;;;;;;;22.14;36.61;97509.56;5111920;28;20130;-59
2022/04/24 00:47:25;;;;;;;0.10;0.00;;;;;;;22.16;36.64;97512.72;5111913;28;20522;-59
2022/04/24 00:49:51;;;;;;;0.10;0.03;;;;;;;22.15;36.47;97516.72;5111737;28;20066;-59
2022/04/24 00:52:18;;;;;;;0.32;0.10;;;;;;;22.15;36.58;97507.59;5111708;28;20058;-57
2022/04/24 00:54:43;;;;;;;0.10;0.08;;;;;;;22.16;36.34;97509.16;5111742;28;20039;-58
2022/04/24 00:57:10;;;;;;;0.00;0.00;;;;;;;22.15;36.30;97511.16;5111680;28;20054;-57
2022/04/24 00:59:37;;;;;;;0.10;0.10;;;;;;;22.15;36.41;97510.38;5111674;28;20559;-57
2022/04/24 01:02:07;;;;;;;0.10;0.10;;;;;;;22.13;36.52;97510.00;5111450;28;20055;-59
2022/04/24 01:04:36;;;;;;;0.10;0.10;;;;;;;22.13;36.71;97496.84;5111482;28;20047;-57
2022/04/24 01:07:02;;;;;;;0.10;0.10;;;;;;;22.12;36.29;97492.50;5109312;28;20055;-57
2022/04/24 01:09:30;;;;;;;0.10;0.05;;;;;;;22.15;36.16;97510.38;5111568;28;20068;-57
2022/04/24 01:11:56;;;;;;;0.10;0.10;;;;;;;22.12;36.63;97500.06;5111539;28;20036;-59
2022/04/24 01:14:26;;;;;;;0.00;0.00;;;;;;;22.11;36.46;97501.28;5111522;28;20044;-59
2022/04/24 01:16:52;;;;;;;0.03;0.03;;;;;;;22.13;36.19;97496.06;5111365;28;20071;-59
2022/04/24 01:19:19;;;;;;;0.00;0.00;;;;;;;22.14;36.26;97497.63;5111513;28;20126;-59
2022/04/24 01:21:46;;;;;;;0.00;0.00;;;;;;;22.11;36.46;97502.06;5111433;28;20112;-59
2022/04/24 01:24:13;;;;;;;0.30;0.20;;;;;;;22.11;36.53;97504.84;5111284;28;20511;-59
2022/04/24 01:26:39;;;;;;;0.10;0.10;;;;;;;22.12;36.34;97514.78;5111317;28;20050;-59
2022/04/24 01:29:05;;;;;;;0.32;0.10;;;;;;;22.13;36.36;97532.25;5111003;28;20048;-59
2022/04/24 01:31:31;;;;;;;0.10;0.10;;;;;;;22.10;36.36;97522.00;5111121;28;20058;-59
2022/04/24 01:33:57;;;;;;;0.28;0.10;;;;;;;22.11;36.36;97521.56;5111220;28;20075;-59
2022/04/24 01:36:23;;;;;;;0.30;0.17;;;;;;;22.13;36.12;97537.81;5110833;28;20466;-59
2022/04/24 01:38:49;;;;;;;0.10;0.10;;;;;;;22.12;36.17;97527.91;5101179;28;20582;-59
2022/04/24 01:41:14;;;;;;;0.15;0.10;;;;;;;22.13;35.92;97526.69;5090834;28;20051;-59
2022/04/24 01:43:41;;;;;;;0.10;0.10;;;;;;;22.12;36.15;97525.91;5090827;28;20522;-58
2022/04/24 01:46:08;;;;;;;0.05;0.05;;;;;;;22.11;36.13;97534.69;5090787;28;20116;-58
2022/04/24 01:48:34;;;;;;;0.10;0.10;;;;;;;22.10;36.45;97535.91;5090409;28;20609;-58
2022/04/24 01:51:07;;;;;;;0.13;0.10;;;;;;;22.10;36.54;97538.69;5090217;28;20123;-58
2022/04/24 01:53:33;;;;;;;0.28;0.13;;;;;;;22.11;36.34;97535.47;5090439;28;20598;-57
2022/04/24 01:56:01;;;;;;;0.43;0.10;;;;;;;22.12;36.34;97541.84;5090452;28;20080;-57
2022/04/24 01:58:27;;;;;;;0.08;0.08;;;;;;;22.11;36.20;97545.84;5090412;28;20043;-58
2022/04/24 02:00:53;;;;;;;0.10;0.10;;;;;;;22.12;36.32;97539.06;5090379;28;20415;-58
2022/04/24 02:03:19;;;;;;;0.10;0.10;;;;;;;22.11;36.30;97546.63;5089968;28;20097;-57
2022/04/24 02:05:46;;;;;;;0.10;0.10;;;;;;;22.10;36.33;97555.41;5090169;28;20078;-57
2022/04/24 02:08:12;;;;;;;0.03;0.03;;;;;;;22.11;36.50;97557.75;5090053;28;20052;-57
2022/04/24 02:10:38;;;;;;;0.10;0.10;;;;;;;22.09;36.42;97557.41;5090235;28;20076;-57
2022/04/24 02:13:03;;;;;;;0.20;0.05;;;;;;;22.11;36.45;97565.31;5090187;28;20056;-57
2022/04/24 02:15:29;;;;;;;0.17;0.10;;;;;;;22.09;36.56;97562.19;5090183;28;20040;-57
2022/04/24 02:17:55;;;;;;;0.05;0.05;;;;;;;22.11;36.53;97566.09;5090192;28;20052;-57
2022/04/24 02:20:21;;;;;;;0.10;0.10;;;;;;;22.12;36.70;97555.75;5090130;28;20537;-57
2022/04/24 02:22:46;;;;;;;0.20;0.20;;;;;;;22.11;36.80;97543.06;5090167;28;20486;-57
2022/04/24 02:25:11;;;;;;;0.10;0.10;;;;;;;22.11;36.80;97549.41;5089956;28;20068;-57
2022/04/24 02:27:37;;;;;;;0.28;0.10;;;;;;;22.10;36.69;97558.19;5090015;28;20119;-57
2022/04/24 02:30:03;;;;;;;0.20;0.20;;;;;;;22.10;36.86;97564.53;5089959;28;20040;-57
2022/04/24 02:32:28;;;;;;;0.38;0.20;;;;;;;22.11;36.59;97566.09;5089920;28;20043;-57
2022/04/24 02:34:54;;;;;;;0.00;0.00;;;;;;;22.11;36.69;97571.69;5089944;28;20384;-57
2022/04/24 02:37:19;;;;;;;0.20;0.10;;;;;;;22.11;36.58;97570.91;5089824;28;20055;-57
2022/04/24 02:39:45;;;;;;;0.10;0.10;;;;;;;22.10;36.71;97566.53;5089649;28;20479;-59
2022/04/24 02:42:12;;;;;;;0.40;0.20;;;;;;;22.11;37.03;97566.09;5089690;28;20047;-59
2022/04/24 02:44:37;;;;;;;0.30;0.15;;;;;;;22.10;36.80;97570.09;5089650;28;20058;-59
2022/04/24 02:47:03;;;;;;;0.10;0.10;;;;;;;22.09;37.33;97564.97;5089760;28;20484;-57
2022/04/24 02:49:28;;;;;;;0.10;0.10;;;;;;;22.09;36.86;97560.19;5089581;28;20153;-57
2022/04/24 02:51:53;;;;;;;0.10;0.10;;;;;;;22.09;37.02;97573.34;5089502;28;20036;-57
2022/04/24 02:54:19;;;;;;;0.20;0.10;;;;;;;22.10;37.08;97555.41;5089632;28;20115;-57
2022/04/24 02:56:44;;;;;;;0.60;0.20;;;;;;;22.09;37.15;97553.84;5089769;28;20032;-57
2022/04/24 02:59:11;;;;;;;0.10;0.10;;;;;;;22.09;37.04;97557.41;5089507;28;20404;-57
2022/04/24 03:01:39;;;;;;;0.20;0.10;;;;;;;22.08;36.97;97550.28;5089428;28;20036;-57
2022/04/24 03:04:04;;;;;;;0.25;0.10;;;;;;;22.09;37.12;97539.91;5090925;28;20160;-58
2022/04/24 03:06:30;;;;;;;0.00;0.00;;;;;;;22.09;37.10;97551.06;5093334;28;20048;-57
2022/04/24 03:08:55;;;;;;;0.38;0.10;;;;;;;22.08;37.25;97549.47;5092881;28;20389;-58
2022/04/24 03:11:21;;;;;;;0.10;0.10;;;;;;;22.08;36.96;97544.69;5092898;28;20069;-57
2022/04/24 03:13:46;;;;;;;0.20;0.10;;;;;;;22.10;37.20;97549.84;5093040;28;20044;-58
2022/04/24 03:16:12;;;;;;;0.10;0.10;;;;;;;22.07;37.13;97543.06;5092711;28;20040;-57
2022/04/24 03:18:37;;;;;;;0.10;0.05;;;;;;;22.09;37.13;97545.50;5061279;28;20056;-58
2022/04/24 03:21:03;;;;;;;0.10;0.10;;;;;;;22.08;37.06;97546.69;5092932;28;20051;-57
2022/04/24 03:23:28;;;;;;;0.40;0.20;;;;;;;22.08;37.11;97541.91;5092826;28;20044;-58
2022/04/24 03:25:54;;;;;;;0.10;0.10;;;;;;;22.07;37.13;97545.06;5092858;28;20534;-57
2022/04/24 03:28:19;;;;;;;0.13;0.10;;;;;;;22.08;37.31;97557.81;5092849;28;20075;-57
2022/04/24 03:30:45;;;;;;;0.00;0.00;;;;;;;22.07;37.13;97559.00;5092809;28;20492;-57
2022/04/24 03:33:10;;;;;;;0.22;0.10;;;;;;;22.07;37.46;97559.78;5092695;28;20056;-57
2022/04/24 03:35:36;;;;;;;0.20;0.10;;;;;;;22.07;37.01;97547.88;5092728;28;20514;-57
2022/04/24 03:38:02;;;;;;;0.30;0.10;;;;;;;22.07;37.31;97553.44;5092754;28;20080;-57
2022/04/24 03:40:28;;;;;;;0.28;0.10;;;;;;;22.08;37.09;97560.59;5092619;28;20072;-57
2022/04/24 03:42:54;;;;;;;0.10;0.10;;;;;;;22.07;37.26;97565.34;5092623;28;20123;-57
2022/04/24 03:45:22;;;;;;;0.00;0.00;;;;;;;22.09;37.40;97567.75;5092562;28;20456;-57
2022/04/24 03:47:48;;;;;;;0.15;0.13;;;;;;;22.09;37.07;97564.97;5092357;28;20048;-57
2022/04/24 03:50:14;;;;;;;0.10;0.10;;;;;;;22.08;37.46;97564.19;5092441;28;20440;-57
2022/04/24 03:52:39;;;;;;;0.10;0.10;;;;;;;22.08;37.39;97566.16;5092204;28;20479;-57
2022/04/24 03:55:06;;;;;;;0.20;0.10;;;;;;;22.07;37.42;97575.72;5092301;28;20039;-57
2022/04/24 03:57:31;;;;;;;0.10;0.10;;;;;;;22.06;37.50;97574.13;5092157;28;20522;-57
2022/04/24 03:59:57;;;;;;;0.10;0.00;;;;;;;22.06;37.51;97574.91;5092377;28;20056;-57
2022/04/24 04:02:22;;;;;;;0.10;0.10;;;;;;;22.04;37.54;97577.34;5092439;28;20059;-57
2022/04/24 04:04:48;;;;;;;0.32;0.13;;;;;;;22.07;37.39;97578.50;5092402;28;20123;-57
2022/04/24 04:07:13;;;;;;;0.15;0.10;;;;;;;22.06;37.66;97577.72;5092210;28;20055;-57
2022/04/24 04:09:42;;;;;;;0.10;0.10;;;;;;;22.05;37.53;97578.94;5092141;28;20146;-59
2022/04/24 04:12:08;;;;;;;0.10;0.10;;;;;;;22.04;37.76;97580.13;5092035;28;20044;-59
2022/04/24 04:14:33;;;;;;;0.08;0.00;;;;;;;22.06;37.65;97585.28;5091804;28;20131;-57
2022/04/24 04:16:59;;;;;;;0.10;0.10;;;;;;;22.08;37.56;97594.81;5091987;28;20138;-58
2022/04/24 04:19:24;;;;;;;0.10;0.10;;;;;;;22.08;37.51;97594.81;5092000;28;20079;-57
2022/04/24 04:21:50;;;;;;;0.10;0.10;;;;;;;22.06;37.82;97593.63;5091864;28;20052;-57
2022/04/24 04:24:16;;;;;;;0.10;0.10;;;;;;;22.05;37.77;97589.28;5093427;28;20590;-57
2022/04/24 04:26:41;;;;;;;0.10;0.05;;;;;;;22.02;37.85;97581.78;5112324;28;20044;-59
2022/04/24 04:29:07;;;;;;;0.10;0.10;;;;;;;22.04;37.60;97584.94;5112198;28;20087;-59
2022/04/24 04:31:33;;;;;;;0.10;0.05;;;;;;;22.03;37.80;97594.50;5112184;28;20044;-59
2022/04/24 04:34:01;;;;;;;0.10;0.10;;;;;;;22.03;37.82;97592.50;5112215;28;20548;-59
2022/04/24 04:36:26;;;;;;;0.13;0.10;;;;;;;22.03;37.68;97594.50;5111982;28;20143;-59
2022/04/24 04:38:52;;;;;;;0.30;0.20;;;;;;;22.02;37.62;97592.94;5111862;28;20516;-59
2022/04/24 04:41:17;;;;;;;0.10;0.10;;;;;;;22.03;37.78;97598.06;5111938;28;20054;-59
2022/04/24 04:43:42;;;;;;;0.08;0.00;;;;;;;22.05;37.70;97603.97;5112002;28;20080;-59
2022/04/24 04:46:08;;;;;;;0.70;0.10;;;;;;;22.05;37.35;97605.97;5112050;28;20710;-59
2022/04/24 04:48:34;;;;;;;0.20;0.10;;;;;;;22.05;37.58;97605.97;5111884;28;20060;-59
2022/04/24 04:50:59;;;;;;;0.08;0.08;;;;;;;22.05;37.59;97612.34;5111908;28;20046;-59
2022/04/24 04:53:25;;;;;;;0.10;0.10;;;;;;;22.05;37.65;97611.53;5111718;28;20516;-58
2022/04/24 04:55:50;;;;;;;0.00;0.00;;;;;;;22.02;37.72;97615.19;5111626;28;20062;-57
2022/04/24 04:58:16;;;;;;;0.10;0.10;;;;;;;22.05;37.70;97622.69;5111706;28;20039;-57
2022/04/24 05:00:41;;;;;;;0.00;0.00;;;;;;;22.02;37.84;97623.56;5111623;28;20511;-58
2022/04/24 05:03:07;;;;;;;0.10;0.10;;;;;;;22.05;37.79;97631.03;5111869;28;20040;-57
2022/04/24 05:05:33;;;;;;;0.00;0.00;;;;;;;22.04;37.71;97626.69;5093414;28;20036;-57
2022/04/24 05:07:59;;;;;;;0.00;0.00;;;;;;;22.04;37.80;97629.47;5111416;28;20055;-59
2022/04/24 05:10:24;;;;;;;0.03;0.00;;;;;;;22.05;38.16;97631.81;5111497;28;20054;-59
2022/04/24 05:12:50;;;;;;;0.00;0.00;;;;;;;22.03;38.17;97631.47;5111496;28;20043;-57
2022/04/24 05:15:17;;;;;;;0.00;0.00;;;;;;;22.04;38.00;97635.03;5111472;28;20040;-57
2022/04/24 05:17:42;;;;;;;0.00;0.00;;;;;;;22.03;38.11;97641.81;5111401;28;20403;-59
2022/04/24 05:20:12;;;;;;;0.10;0.10;;;;;;;22.05;38.02;97644.97;5111264;28;20054;-57
2022/04/24 05:22:39;;;;;;;0.13;0.10;;;;;;;22.03;38.12;97645.38;5111142;28;20525;-57
2022/04/24 05:25:07;;;;;;;0.05;0.05;;;;;;;22.02;38.36;97643.81;5110012;28;20503;-57
2022/04/24 05:27:33;;;;;;;0.20;0.10;;;;;;;22.04;38.52;97654.53;5110600;28;20052;-59
2022/04/24 05:29:58;;;;;;;0.10;0.10;;;;;;;22.04;38.05;97657.31;5111333;28;20081;-59
2022/04/24 05:32:24;;;;;;;0.20;0.20;;;;;;;22.04;38.34;97654.53;5111339;28;20570;-59
2022/04/24 05:34:50;;;;;;;0.00;0.00;;;;;;;22.04;38.26;97649.75;5111351;28;20100;-57
2022/04/24 05:37:15;;;;;;;0.10;0.10;;;;;;;22.04;38.42;97654.53;5111140;28;20067;-57
2022/04/24 05:39:41;;;;;;;0.15;0.00;;;;;;;22.03;38.57;97645.38;5111169;28;20082;-57
2022/04/24 05:42:06;;;;;;;0.00;0.00;;;;;;;22.04;38.47;97651.75;5111082;28;20093;-57
2022/04/24 05:44:32;;;;;;;0.08;0.00;;;;;;;22.03;38.15;97655.75;5111089;28;20031;-57
2022/04/24 05:46:58;;;;;;;0.10;0.10;;;;;;;22.02;37.98;97648.59;5111028;28;20503;-57
2022/04/24 05:49:23;;;;;;;0.08;0.00;;;;;;;22.04;38.46;97652.53;5110968;28;20067;-57
2022/04/24 05:51:48;;;;;;;0.10;0.00;;;;;;;22.04;38.20;97649.75;5110922;28;20051;-57
2022/04/24 05:54:15;;;;;;;0.10;0.08;;;;;;;22.04;38.34;97657.31;5110863;28;20068;-57
2022/04/24 05:56:41;;;;;;;0.08;0.00;;;;;;;22.03;38.27;97659.31;5110796;28;20047;-57
2022/04/24 05:59:08;;;;;;;0.22;0.13;;;;;;;22.03;38.24;97664.09;5110743;28;20072;-58
2022/04/24 06:01:34;;;;;;;0.13;0.10;;;;;;;22.02;38.53;97663.31;5110767;28;20144;-57
2022/04/24 06:03:59;;;;;;;0.20;0.10;;;;;;;22.02;38.44;97660.53;5110658;28;20040;-58
2022/04/24 06:06:25;;;;;;;0.10;0.10;;;;;;;22.05;38.29;97667.22;5110598;28;20051;-57
2022/04/24 06:08:50;;;;;;;0.00;0.00;;;;;;;22.05;38.33;97670.00;5110600;28;20047;-58
2022/04/24 06:11:15;;;;;;;0.45;0.17;;;;;;;22.07;38.30;97678.72;5110515;28;20044;-58
2022/04/24 06:13:41;;;;;;;0.00;0.00;;;;;;;22.06;38.66;97682.72;5110501;28;20414;-57
2022/04/24 06:16:07;;;;;;;0.10;0.00;;;;;;;22.05;38.59;97681.94;5110190;28;20180;-57
2022/04/24 06:18:32;;;;;;;0.10;0.10;;;;;;;22.04;38.81;97690.72;5110165;28;20539;-57
2022/04/24 06:20:58;;;;;;;0.10;0.10;;;;;;;22.05;38.51;97681.16;5110418;28;20044;-59
2022/04/24 06:23:28;;;;;;;0.20;0.13;;;;;;;22.05;38.68;97683.94;5110360;28;20419;-59
2022/04/24 06:25:53;;;;;;;0.00;0.00;;;;;;;22.04;38.63;97685.16;5110462;28;20510;-57
2022/04/24 06:28:19;;;;;;;0.10;0.10;;;;;;;22.05;38.73;97692.28;5110204;28;20055;-57
2022/04/24 06:30:44;;;;;;;0.10;0.10;;;;;;;22.04;38.69;97697.06;5110428;28;20048;-58
2022/04/24 06:33:11;;;;;;;0.32;0.13;;;;;;;22.04;38.67;97696.28;5110022;28;20616;-57
2022/04/24 06:35:37;;;;;;;0.10;0.10;;;;;;;22.03;38.84;97695.50;5110041;28;20047;-59
2022/04/24 06:38:04;;;;;;;0.10;0.10;;;;;;;22.02;38.79;97701.50;5109073;28;20043;-59
2022/04/24 06:40:30;;;;;;;0.20;0.10;;;;;;;22.03;38.89;97708.63;5110252;28;20047;-59
2022/04/24 06:43:00;;;;;;;0.00;0.00;;;;;;;22.04;38.75;97701.84;5110235;28;20055;-59
2022/04/24 06:45:25;;;;;;;0.10;0.10;;;;;;;22.04;38.92;97713.78;5110390;28;20499;-59
2022/04/24 06:48:06;;;;;;;0.10;0.10;;;;;;;22.02;39.04;97707.84;5110103;28;20040;-59
2022/04/24 06:50:32;;;;;;;0.20;0.20;;;;;;;22.04;38.71;97713.78;5107491;28;20048;-59
2022/04/24 06:53:00;;;;;;;0.45;0.20;;;;;;;22.04;38.79;97718.56;5110367;28;20046;-59
2022/04/24 06:55:27;;;;;;;0.22;0.13;;;;;;;22.01;39.14;97708.28;5109875;28;20142;-59
2022/04/24 06:57:52;;;;;;;0.50;0.20;;;;;;;22.05;39.24;97709.00;5109757;28;20048;-57
2022/04/24 07:00:19;;;;;;;0.30;0.20;;;;;;;22.05;39.21;97723.69;5109876;28;20046;-57
2022/04/24 07:02:45;;;;;;;0.10;0.10;;;;;;;22.06;39.29;97718.91;5109893;28;20067;-59
2022/04/24 07:05:11;;;;;;;0.00;0.00;;;;;;;22.05;39.00;97717.34;5109941;28;20130;-59
2022/04/24 07:07:36;;;;;;;0.90;0.30;;;;;;;22.06;38.70;97718.91;5109850;28;20122;-59
2022/04/24 07:10:01;;;;;;;0.17;0.10;;;;;;;22.06;39.01;97724.47;5109693;28;20138;-59
2022/04/24 07:12:27;;;;;;;0.10;0.10;;;;;;;22.06;38.93;97727.28;5109638;28;20037;-59
2022/04/24 07:14:52;;;;;;;0.17;0.17;;;;;;;22.06;38.99;97727.28;5109614;28;20036;-59
2022/04/24 07:17:18;;;;;;;0.13;0.13;;;;;;;22.04;39.30;97727.69;5109479;28;20046;-59
2022/04/24 07:19:43;;;;;;;0.10;0.10;;;;;;;22.04;38.98;97722.13;5109759;28;20131;-59
2022/04/24 07:22:09;;;;;;;0.20;0.10;;;;;;;22.05;39.15;97736.84;5109538;28;20074;-59
2022/04/24 07:24:34;;;;;;;0.45;0.10;;;;;;;22.05;38.92;97739.63;5109544;28;20051;-59
2022/04/24 07:27:00;;;;;;;0.10;0.10;;;;;;;22.06;39.19;97741.19;5109527;28;20140;-59
2022/04/24 07:29:25;;;;;;;0.22;0.15;;;;;;;22.05;39.11;97740.41;5109417;28;20043;-57
2022/04/24 07:31:51;;;;;;;0.22;0.20;;;;;;;22.05;38.98;97753.53;5109445;28;20043;-57
2022/04/24 07:34:16;;;;;;;0.70;0.40;;;;;;;22.05;38.97;97750.75;5109311;28;20126;-57
2022/04/24 07:36:42;;;;;;;0.50;0.20;;;;;;;22.05;39.29;97757.09;5109428;28;20063;-57
2022/04/24 07:39:07;;;;;;;0.52;0.30;;;;;;;22.05;39.28;97756.31;5109318;28;20115;-59
2022/04/24 07:41:32;;;;;;;0.70;0.40;;;;;;;22.02;39.00;97755.19;5109323;28;20039;-59
2022/04/24 07:43:58;;;;;;;0.50;0.25;;;;;;;22.05;39.13;97765.47;5109202;28;20499;-57
2022/04/24 07:46:23;;;;;;;0.40;0.28;;;;;;;22.05;38.99;97761.91;5109085;28;20611;-57
2022/04/24 07:48:49;;;;;;;0.40;0.30;;;;;;;22.04;39.30;97761.09;5109080;28;20042;-58
2022/04/24 07:51:14;;;;;;;0.63;0.20;;;;;;;22.05;38.89;97768.25;5112492;28;20499;-59
2022/04/24 07:53:42;;;;;;;0.47;0.32;;;;;;;22.06;39.08;97758.69;5112656;28;20456;-59
2022/04/24 07:56:08;;;;;;;0.40;0.20;;;;;;;22.06;39.13;97763.47;5112749;28;20462;-59
2022/04/24 07:58:33;;;;;;;0.50;0.20;;;;;;;22.04;39.08;97772.25;5112602;28;20054;-59
2022/04/24 08:00:59;;;;;;;0.10;0.10;;;;;;;22.04;38.90;97768.69;5112653;28;20042;-59
2022/04/24 08:03:24;;;;;;;0.20;0.20;;;;;;;22.05;38.89;97768.25;5112484;28;21083;-59
2022/04/24 08:05:51;;;;;;;0.30;0.20;;;;;;;22.04;39.07;97772.25;5112372;28;20498;-59
2022/04/24 08:08:19;;;;;;;0.17;0.17;;;;;;;22.05;39.11;97775.81;5112305;28;20056;-59
2022/04/24 08:10:47;;;;;;;0.20;0.20;;;;;;;22.06;39.45;97767.03;5112257;28;20066;-59
2022/04/24 08:13:13;;;;;;;0.20;0.20;;;;;;;22.07;39.45;97776.16;5112384;28;20084;-59
2022/04/24 08:15:39;;;;;;;0.17;0.10;;;;;;;22.04;39.19;97777.81;5112391;28;20126;-59
2022/04/24 08:18:05;;;;;;;0.20;0.20;;;;;;;22.06;39.23;97780.16;5112054;28;20130;-59
2022/04/24 08:20:32;;;;;;;0.47;0.20;;;;;;;22.07;39.30;97798.44;5112046;28;20100;-59
2022/04/24 08:22:59;;;;;;;0.20;0.20;;;;;;;22.05;39.58;97789.75;5112110;28;20551;-59
2022/04/24 08:25:26;;;;;;;0.25;0.20;;;;;;;22.05;39.22;97793.31;5112397;28;20503;-59
2022/04/24 08:27:53;;;;;;;0.15;0.10;;;;;;;22.06;39.19;97791.31;5111899;28;20078;-59
2022/04/24 08:30:20;;;;;;;0.20;0.20;;;;;;;22.05;39.07;97801.66;5112120;28;20067;-59
2022/04/24 08:32:46;;;;;;;0.20;0.20;;;;;;;22.05;39.15;97800.88;5112194;28;20043;-59
2022/04/24 08:35:15;;;;;;;0.30;0.22;;;;;;;22.04;39.31;97799.31;5112266;28;20092;-59
2022/04/24 08:37:41;;;;;;;0.10;0.10;;;;;;;22.06;39.07;97799.66;5112173;28;20036;-59
2022/04/24 08:40:11;;;;;;;0.20;0.20;;;;;;;22.06;39.28;97805.22;5111970;28;20184;-59
2022/04/24 08:42:37;;;;;;;0.30;0.20;;;;;;;22.05;39.49;97807.22;5111992;28;20039;-59
2022/04/24 08:45:05;;;;;;;0.10;0.10;;;;;;;22.04;39.34;97804.88;5112055;28;20044;-57
2022/04/24 08:47:30;;;;;;;0.57;0.20;;;;;;;22.05;39.20;97806.44;5093649;28;20053;-57
2022/04/24 08:49:58;;;;;;;0.20;0.10;;;;;;;22.05;39.29;97807.22;5112002;28;20043;-57
2022/04/24 08:52:24;;;;;;;0.25;0.20;;;;;;;22.06;39.10;97813.59;5111781;28;20043;-58
2022/04/24 08:54:51;;;;;;;0.28;0.22;;;;;;;22.07;39.13;97817.94;5111772;28;20053;-58
2022/04/24 08:57:18;;;;;;;0.13;0.13;;;;;;;22.07;39.32;97812.38;5111993;28;20047;-57
2022/04/24 08:59:44;;;;;;;0.25;0.10;;;;;;;22.06;39.42;97816.38;5109898;28;20050;-57
2022/04/24 09:02:10;;;;;;;0.10;0.10;;;;;;;22.05;39.04;97823.94;5110372;28;20052;-57
2022/04/24 09:04:40;;;;;;;0.43;0.30;;;;;;;22.06;39.30;97824.72;5111797;28;20134;-57
2022/04/24 09:07:08;;;;;;;0.20;0.20;;;;;;;22.06;38.99;97830.28;5109428;28;20047;-57
2022/04/24 09:09:42;;;;;;;0.22;0.20;;;;;;;22.06;39.18;97830.28;5111624;28;20051;-58
2022/04/24 09:12:16;;;;;;;0.30;0.17;;;;;;;22.06;39.12;97835.84;5111504;28;20116;-58
2022/04/24 09:14:49;;;;;;;0.20;0.20;;;;;;;22.06;39.06;97836.63;5111572;28;20513;-57
2022/04/24 09:17:16;;;;;;;;;;;;;;;22.12;39.16;97835.00;5111812;28;20089;-57
2022/04/24 09:19:41;;;;;;;0.52;0.30;;;;;;;22.09;39.09;97843.41;5111572;28;19921;-57
2022/04/24 09:22:11;;;;;;;0.13;0.13;;;;;;;22.07;39.23;97840.22;5111526;28;20113;-57
2022/04/24 09:24:41;;;;;;;0.20;0.20;;;;;;;22.07;39.14;97843.00;5111532;28;20047;-57
2022/04/24 09:27:08;;;;;;;0.52;0.20;;;;;;;22.08;39.14;97842.63;5111348;28;20463;-57
2022/04/24 09:29:33;;;;;;;0.35;0.30;;;;;;;22.07;39.53;97838.22;5111381;28;20139;-57
2022/04/24 09:31:59;;;;;;;0.20;0.20;;;;;;;22.08;39.14;97841.81;5111235;28;20130;-57
2022/04/24 09:34:31;;;;;;;0.60;0.32;;;;;;;22.07;39.32;97838.22;5111116;28;20158;-57
2022/04/24 09:37:04;;;;;;;0.32;0.20;;;;;;;22.07;39.29;97837.44;5111085;28;20043;-57
2022/04/24 09:39:33;;;;;;;0.40;0.30;;;;;;;22.06;39.47;97830.28;5111002;28;20084;-58
2022/04/24 09:42:02;;;;;;;0.40;0.20;;;;;;;22.07;39.20;97845.78;5110990;28;20038;-59
2022/04/24 09:44:36;;;;;;;0.28;0.20;;;;;;;22.07;39.09;97843.78;5110990;28;20047;-57
2022/04/24 09:47:02;;;;;;;0.25;0.20;;;;;;;22.08;39.28;97850.97;5110794;28;20063;-57
2022/04/24 09:49:31;;;;;;;0.35;0.20;;;;;;;22.08;39.18;97850.97;5110842;28;20043;-57
2022/04/24 09:51:57;;;;;;;0.55;0.30;;;;;;;22.09;39.54;97846.19;5110881;28;20081;-58
2022/04/24 09:54:23;;;;;;;0.50;0.30;;;;;;;22.10;39.52;97842.97;5111059;28;20120;-57
2022/04/24 09:56:50;;;;;;;0.47;0.30;;;;;;;22.10;39.44;97853.34;5110969;28;20054;-57
2022/04/24 09:59:16;;;;;;;0.20;0.20;;;;;;;22.10;39.35;97856.13;5110881;28;20065;-57
2022/04/24 10:01:42;;;;;;;0.30;0.20;;;;;;;22.10;39.29;97870.81;5110748;28;20128;-57
2022/04/24 10:04:09;;;;;;;0.52;0.30;;;;;;;22.09;39.26;97874.81;5110784;28;20086;-57
2022/04/24 10:06:36;;;;;;;0.25;0.25;;;;;;;22.11;39.41;97869.63;5110555;28;20043;-57
2022/04/24 10:09:01;;;;;;;0.43;0.30;;;;;;;22.11;39.21;97872.41;5110617;28;20056;-57
2022/04/24 10:11:28;;;;;;;0.20;0.20;;;;;;;22.10;39.18;97870.03;5110641;28;20046;-59
2022/04/24 10:14:01;;;;;;;0.10;0.10;;;;;;;22.12;39.17;97878.75;5110228;28;20679;-59
2022/04/24 10:16:53;;;;;;;0.30;0.25;;;;;;;22.11;38.91;97877.19;5110510;28;20047;-59
2022/04/24 10:19:27;;;;;;;0.20;0.20;;;;;;;22.11;39.04;97882.75;5110611;28;20059;-59
2022/04/24 10:22:23;;;;;;;0.20;0.20;;;;;;;22.12;38.96;97881.53;5110361;28;20055;-59
2022/04/24 10:24:48;;;;;;;0.50;0.30;;;;;;;22.15;38.98;97889.06;5110394;28;20051;-57
2022/04/24 10:27:14;;;;;;;0.20;0.17;;;;;;;22.13;39.08;97889.47;5110146;28;20048;-57
2022/04/24 10:29:49;;;;;;;0.30;0.30;;;;;;;22.12;38.84;97885.13;5110072;28;20051;-57
2022/04/24 10:32:30;;;;;;;0.30;0.20;;;;;;;22.10;38.79;97895.88;5110031;28;20054;-57
2022/04/24 10:34:56;;;;;;;0.35;0.20;;;;;;;22.12;38.92;97892.69;5110335;28;20770;-57
2022/04/24 10:37:33;;;;;;;0.25;0.20;;;;;;;22.10;38.79;97886.75;5110358;28;20069;-57
2022/04/24 10:40:00;;;;;;;0.30;0.20;;;;;;;22.11;38.68;97893.91;5110063;28;20051;-57
2022/04/24 10:42:34;;;;;;;0.30;0.17;;;;;;;22.08;38.70;97898.31;5110132;28;20039;-57
2022/04/24 10:45:15;;;;;;;0.20;0.20;;;;;;;22.11;38.91;97897.47;5110278;28;20039;-57
2022/04/24 10:47:52;;;;;;;0.20;0.20;;;;;;;22.12;38.99;97896.25;5109994;28;20044;-57
2022/04/24 10:50:20;;;;;;;0.30;0.25;;;;;;;22.13;38.62;97897.03;5110123;28;20072;-57
2022/04/24 10:52:48;;;;;;;0.15;0.15;;;;;;;22.14;38.87;97904.97;5071369;28;20499;-57
2022/04/24 10:55:16;;;;;;;0.10;0.10;;;;;;;22.16;38.90;97901.78;5110040;28;20464;-58
2022/04/24 10:57:44;;;;;;;0.90;0.40;;;;;;;22.15;38.69;97903.00;5110000;28;20671;-57
2022/04/24 11:00:16;;;;;;;0.10;0.10;;;;;;;22.14;38.61;97904.97;5074381;28;20546;-57
2022/04/24 11:02:42;;;;;;;0.10;0.10;;;;;;;22.15;38.62;97903.00;5109877;28;20050;-57
2022/04/24 11:05:09;;;;;;;0.17;0.10;;;;;;;22.15;38.69;97901.00;5109843;28;20071;-57
2022/04/24 11:07:35;;;;;;;0.20;0.20;;;;;;;22.16;38.84;97907.34;5109899;28;20478;-57
2022/04/24 11:10:11;;;;;;;0.10;0.10;;;;;;;22.15;38.81;97909.34;5109915;28;20047;-59
2022/04/24 11:12:38;;;;;;;0.30;0.13;;;;;;;22.18;38.85;97907.72;5109582;28;20051;-59
2022/04/24 11:15:05;;;;;;;0.20;0.20;;;;;;;22.17;38.77;97904.13;5109660;28;20083;-57
2022/04/24 11:17:30;;;;;;;0.20;0.17;;;;;;;22.20;38.76;97913.63;5109230;28;20122;-57
2022/04/24 11:20:00;;;;;;;0.20;0.20;;;;;;;22.16;38.77;97910.94;5108755;28;20047;-57
2022/04/24 11:22:26;;;;;;;0.60;0.30;;;;;;;22.16;38.63;97904.56;5109360;28;20039;-57
2022/04/24 11:24:55;;;;;;;0.32;0.20;;;;;;;22.15;38.83;97909.34;5110769;28;20127;-57
2022/04/24 11:27:26;;;;;;;0.20;0.20;;;;;;;22.16;38.62;97910.94;5113084;28;20503;-59
2022/04/24 11:29:51;;;;;;;0.10;0.10;;;;;;;22.17;38.45;97912.50;5113112;28;20051;-59
2022/04/24 11:32:18;;;;;;;0.13;0.13;;;;;;;22.18;38.73;97899.34;5113137;28;20052;-59